sensor_id;sensor_type;location;lat;lon;timestamp;pressure;altitude;pressure_sealevel;temperature;humidity
75767;BME280;64378;55.596;13.014;2022-12-07T00:02:09;100901.94;;;16.65;42.56
75767;BME280;64378;55.596;13.014;2022-12-07T00:04:35;100894.00;;;16.63;42.46
75767;BME280;64378;55.596;13.014;2022-12-07T00:07:00;100883.34;;;16.62;42.46
75767;BME280;64378;55.596;13.014;2022-12-07T00:09:26;100880.03;;;16.60;42.54
75767;BME280;64378;55.596;13.014;2022-12-07T00:11:51;100871.88;;;16.60;42.29
75767;BME280;64378;55.596;13.014;2022-12-07T00:14:20;100867.47;;;16.59;42.21
75767;BME280;64378;55.596;13.014;2022-12-07T00:16:45;100868.53;;;16.58;42.14
75767;BME280;64378;55.596;13.014;2022-12-07T00:19:13;100867.13;;;16.55;42.20
75767;BME280;64378;55.596;13.014;2022-12-07T00:21:39;100862.50;;;16.56;42.32
75767;BME280;64378;55.596;13.014;2022-12-07T00:24:04;100860.25;;;16.53;42.55
75767;BME280;64378;55.596;13.014;2022-12-07T00:26:31;100857.53;;;16.53;42.42
75767;BME280;64378;55.596;13.014;2022-12-07T00:28:57;100854.81;;;16.53;42.07
75767;BME280;64378;55.596;13.014;2022-12-07T00:31:24;100855.06;;;16.51;42.44
75767;BME280;64378;55.596;13.014;2022-12-07T00:33:50;100853.41;;;16.50;42.52
75767;BME280;64378;55.596;13.014;2022-12-07T00:36:16;100850.91;;;16.49;42.40
75767;BME280;64378;55.596;13.014;2022-12-07T00:38:42;100845.09;;;16.45;42.32
75767;BME280;64378;55.596;13.014;2022-12-07T00:41:10;100845.09;;;16.45;42.33
75767;BME280;64378;55.596;13.014;2022-12-07T00:43:36;100850.78;;;16.44;42.04
75767;BME280;64378;55.596;13.014;2022-12-07T00:46:01;100847.47;;;16.42;42.33
75767;BME280;64378;55.596;13.014;2022-12-07T00:48:27;100845.56;;;16.42;42.34
75767;BME280;64378;55.596;13.014;2022-12-07T00:50:52;100839.31;;;16.42;42.45
75767;BME280;64378;55.596;13.014;2022-12-07T00:53:17;100843.91;;;16.41;42.03
75767;BME280;64378;55.596;13.014;2022-12-07T00:55:43;100842.25;;;16.40;42.30
75767;BME280;64378;55.596;13.014;2022-12-07T00:58:08;100846.03;;;16.39;42.42
75767;BME280;64378;55.596;13.014;2022-12-07T01:00:35;100842.50;;;16.39;42.43
75767;BME280;64378;55.596;13.014;2022-12-07T01:03:00;100850.44;;;16.40;42.23
75767;BME280;64378;55.596;13.014;2022-12-07T01:05:25;100848.78;;;16.39;42.08
75767;BME280;64378;55.596;13.014;2022-12-07T01:07:51;100836.00;;;16.40;42.44
75767;BME280;64378;55.596;13.014;2022-12-07T01:10:16;100836.22;;;16.38;41.97
75767;BME280;64378;55.596;13.014;2022-12-07T01:12:41;100831.63;;;16.39;42.21
75767;BME280;64378;55.596;13.014;2022-12-07T01:15:07;100829.13;;;16.37;42.26
75767;BME280;64378;55.596;13.014;2022-12-07T01:17:32;100829.13;;;16.37;42.09
75767;BME280;64378;55.596;13.014;2022-12-07T01:19:58;100822.84;;;16.37;42.30
75767;BME280;64378;55.596;13.014;2022-12-07T01:22:23;100824.72;;;16.36;42.21
75767;BME280;64378;55.596;13.014;2022-12-07T01:24:48;100824.72;;;16.36;42.25
75767;BME280;64378;55.596;13.014;2022-12-07T01:27:14;100825.78;;;16.35;42.20
75767;BME280;64378;55.596;13.014;2022-12-07T01:29:39;100828.31;;;16.37;42.41
75767;BME280;64378;55.596;13.014;2022-12-07T01:32:04;100822.25;;;16.35;42.12
75767;BME280;64378;55.596;13.014;2022-12-07T01:34:29;100822.25;;;16.35;42.44
75767;BME280;64378;55.596;13.014;2022-12-07T01:36:55;100824.97;;;16.35;42.66
75767;BME280;64378;55.596;13.014;2022-12-07T01:39:20;100818.69;;;16.34;42.39
75767;BME280;64378;55.596;13.014;2022-12-07T01:41:45;100809.72;;;16.34;42.52
75767;BME280;64378;55.596;13.014;2022-12-07T01:46:36;100804.47;;;16.32;42.34
75767;BME280;64378;55.596;13.014;2022-12-07T01:49:01;100801.75;;;16.32;42.59
75767;BME280;64378;55.596;13.014;2022-12-07T01:51:28;100802.59;;;16.33;42.54
75767;BME280;64378;55.596;13.014;2022-12-07T01:53:54;100801.75;;;16.32;42.50
75767;BME280;64378;55.596;13.014;2022-12-07T01:56:20;100796.31;;;16.32;42.53
75767;BME280;64378;55.596;13.014;2022-12-07T01:58:48;100800.09;;;16.31;42.66
75767;BME280;64378;55.596;13.014;2022-12-07T02:01:14;100798.44;;;16.30;42.33
75767;BME280;64378;55.596;13.014;2022-12-07T02:03:40;100798.44;;;16.30;42.45
75767;BME280;64378;55.596;13.014;2022-12-07T02:06:05;100796.78;;;16.29;42.65
75767;BME280;64378;55.596;13.014;2022-12-07T02:08:31;100791.34;;;16.29;42.47
75767;BME280;64378;55.596;13.014;2022-12-07T02:10:57;100790.28;;;16.30;42.54
75767;BME280;64378;55.596;13.014;2022-12-07T02:13:23;100793.00;;;16.30;42.91
75767;BME280;64378;55.596;13.014;2022-12-07T02:28:50;100767.66;;;16.30;42.55
75767;BME280;64378;55.596;13.014;2022-12-07T02:31:17;100760.31;;;16.30;42.62
75767;BME280;64378;55.596;13.014;2022-12-07T02:33:52;100758.41;;;16.31;42.72
75767;BME280;64378;55.596;13.014;2022-12-07T02:36:21;100759.47;;;16.30;42.72
75767;BME280;64378;55.596;13.014;2022-12-07T02:38:54;100755.94;;;16.29;42.93
75767;BME280;64378;55.596;13.014;2022-12-07T02:41:28;100747.78;;;16.29;42.76
75767;BME280;64378;55.596;13.014;2022-12-07T02:43:56;100750.72;;;16.28;42.70
75767;BME280;64378;55.596;13.014;2022-12-07T02:46:23;100757.81;;;16.29;43.10
75767;BME280;64378;55.596;13.014;2022-12-07T02:48:51;100739.84;;;16.28;42.99
75767;BME280;64378;55.596;13.014;2022-12-07T02:51:18;100738.19;;;16.27;42.78
75767;BME280;64378;55.596;13.014;2022-12-07T02:53:43;100734.63;;;16.27;42.98
75767;BME280;64378;55.596;13.014;2022-12-07T03:01:35;100725.03;;;16.24;42.90
75767;BME280;64378;55.596;13.014;2022-12-07T03:06:34;100709.75;;;16.23;42.90
75767;BME280;64378;55.596;13.014;2022-12-07T03:09:19;100712.75;;;16.22;42.71
75767;BME280;64378;55.596;13.014;2022-12-07T03:11:55;100715.47;;;16.22;42.37
75767;BME280;64378;55.596;13.014;2022-12-07T03:14:25;100712.97;;;16.20;42.74
75767;BME280;64378;55.596;13.014;2022-12-07T03:19:42;100704.78;;;16.20;42.65
75767;BME280;64378;55.596;13.014;2022-12-07T03:22:10;100707.78;;;16.19;42.67
75767;BME280;64378;55.596;13.014;2022-12-07T03:27:21;100709.91;;;16.17;42.47
75767;BME280;64378;55.596;13.014;2022-12-07T03:29:51;100693.81;;;16.15;42.31
75767;BME280;64378;55.596;13.014;2022-12-07T03:32:23;100694.88;;;16.14;42.21
75767;BME280;64378;55.596;13.014;2022-12-07T03:34:52;100697.63;;;16.14;42.22
75767;BME280;64378;55.596;13.014;2022-12-07T03:37:23;100697.03;;;16.12;42.07
75767;BME280;64378;55.596;13.014;2022-12-07T03:39:57;100689.91;;;16.11;42.18
75767;BME280;64378;55.596;13.014;2022-12-07T03:42:25;100697.25;;;16.11;41.99
75767;BME280;64378;55.596;13.014;2022-12-07T03:44:50;100699.38;;;16.09;42.04
75767;BME280;64378;55.596;13.014;2022-12-07T03:47:18;100693.94;;;16.09;41.94
75767;BME280;64378;55.596;13.014;2022-12-07T03:49:50;100690.41;;;16.08;41.95
75767;BME280;64378;55.596;13.014;2022-12-07T03:52:26;100694.19;;;16.07;42.32
75767;BME280;64378;55.596;13.014;2022-12-07T03:54:57;100684.09;;;16.08;42.20
75767;BME280;64378;55.596;13.014;2022-12-07T03:57:25;100686.81;;;16.08;42.16
75767;BME280;64378;55.596;13.014;2022-12-07T03:59:53;100681.38;;;16.08;42.23
75767;BME280;64378;55.596;13.014;2022-12-07T04:02:19;100689.56;;;16.08;42.27
75767;BME280;64378;55.596;13.014;2022-12-07T04:04:44;100691.47;;;16.07;42.18
75767;BME280;64378;55.596;13.014;2022-12-07T04:07:10;100683.50;;;16.06;42.31
75767;BME280;64378;55.596;13.014;2022-12-07T04:09:35;100680.56;;;16.07;42.15
75767;BME280;64378;55.596;13.014;2022-12-07T04:12:01;100674.28;;;16.07;42.06
75767;BME280;64378;55.596;13.014;2022-12-07T04:14:26;100668.28;;;16.05;42.20
75767;BME280;64378;55.596;13.014;2022-12-07T04:16:52;100673.22;;;16.08;42.00
75767;BME280;64378;55.596;13.014;2022-12-07T04:19:18;100668.03;;;16.06;41.99
75767;BME280;64378;55.596;13.014;2022-12-07T04:21:44;100673.47;;;16.06;42.07
75767;BME280;64378;55.596;13.014;2022-12-07T04:24:09;100662.84;;;16.05;42.04
75767;BME280;64378;55.596;13.014;2022-12-07T04:26:34;100659.28;;;16.04;41.81
75767;BME280;64378;55.596;13.014;2022-12-07T04:29:00;100657.63;;;16.03;42.01
75767;BME280;64378;55.596;13.014;2022-12-07T04:31:25;100656.81;;;16.03;41.93
75767;BME280;64378;55.596;13.014;2022-12-07T04:33:50;100648.63;;;16.03;42.09
75767;BME280;64378;55.596;13.014;2022-12-07T04:36:16;100655.97;;;16.02;41.97
75767;BME280;64378;55.596;13.014;2022-12-07T04:38:41;100649.72;;;16.02;41.84
75767;BME280;64378;55.596;13.014;2022-12-07T04:41:07;100648.88;;;16.01;42.12
75767;BME280;64378;55.596;13.014;2022-12-07T04:43:33;100646.16;;;16.01;41.91
75767;BME280;64378;55.596;13.014;2022-12-07T04:45:58;100646.41;;;16.00;41.93
75767;BME280;64378;55.596;13.014;2022-12-07T04:48:23;100646.41;;;16.00;42.08
75767;BME280;64378;55.596;13.014;2022-12-07T04:50:49;100640.94;;;16.00;41.87
75767;BME280;64378;55.596;13.014;2022-12-07T04:53:14;100646.63;;;15.98;41.88
75767;BME280;64378;55.596;13.014;2022-12-07T04:55:40;100648.53;;;15.98;42.00
75767;BME280;64378;55.596;13.014;2022-12-07T04:58:05;100646.88;;;15.97;41.89
75767;BME280;64378;55.596;13.014;2022-12-07T05:00:30;100636.78;;;15.97;42.00
75767;BME280;64378;55.596;13.014;2022-12-07T05:02:55;100645.81;;;15.98;41.93
75767;BME280;64378;55.596;13.014;2022-12-07T05:05:20;100633.25;;;15.97;42.13
75767;BME280;64378;55.596;13.014;2022-12-07T05:07:46;100627.81;;;15.97;41.80
75767;BME280;64378;55.596;13.014;2022-12-07T05:10:11;100628.03;;;15.95;41.94
75767;BME280;64378;55.596;13.014;2022-12-07T05:12:36;100629.94;;;15.95;42.10
75767;BME280;64378;55.596;13.014;2022-12-07T05:15:02;100635.13;;;15.96;41.92
75767;BME280;64378;55.596;13.014;2022-12-07T05:17:27;100638.34;;;15.93;41.74
75767;BME280;64378;55.596;13.014;2022-12-07T05:19:52;100631.28;;;15.92;41.83
75767;BME280;64378;55.596;13.014;2022-12-07T05:22:17;100627.72;;;15.92;41.84
75767;BME280;64378;55.596;13.014;2022-12-07T05:24:43;100622.53;;;15.90;41.90
75767;BME280;64378;55.596;13.014;2022-12-07T05:27:08;100624.41;;;15.90;41.56
75767;BME280;64378;55.596;13.014;2022-12-07T05:29:33;100628.44;;;15.87;41.88
75767;BME280;64378;55.596;13.014;2022-12-07T05:31:58;100626.53;;;15.88;41.95
75767;BME280;64378;55.596;13.014;2022-12-07T05:34:23;100620.28;;;15.87;41.64
75767;BME280;64378;55.596;13.014;2022-12-07T05:36:49;100623.81;;;15.88;41.77
75767;BME280;64378;55.596;13.014;2022-12-07T05:39:15;100615.63;;;15.88;41.91
75767;BME280;64378;55.596;13.014;2022-12-07T05:41:40;100610.44;;;15.86;41.78
75767;BME280;64378;55.596;13.014;2022-12-07T05:44:24;100604.16;;;15.86;41.76
75767;BME280;64378;55.596;13.014;2022-12-07T05:46:49;100601.44;;;15.86;42.04
75767;BME280;64378;55.596;13.014;2022-12-07T05:49:14;100604.16;;;15.86;42.00
75767;BME280;64378;55.596;13.014;2022-12-07T05:51:39;100607.72;;;15.86;41.68
75767;BME280;64378;55.596;13.014;2022-12-07T05:54:05;100609.59;;;15.86;41.69
75767;BME280;64378;55.596;13.014;2022-12-07T05:56:30;100608.53;;;15.87;41.68
75767;BME280;64378;55.596;13.014;2022-12-07T05:58:55;100594.13;;;15.86;41.66
75767;BME280;64378;55.596;13.014;2022-12-07T06:01:39;100599.78;;;15.85;41.77
75767;BME280;64378;55.596;13.014;2022-12-07T06:04:05;100601.91;;;15.83;41.43
75767;BME280;64378;55.596;13.014;2022-12-07T06:06:30;100595.66;;;15.82;41.55
75767;BME280;64378;55.596;13.014;2022-12-07T06:08:55;100599.19;;;15.83;41.59
75767;BME280;64378;55.596;13.014;2022-12-07T06:11:21;100598.59;;;15.81;41.51
75767;BME280;64378;55.596;13.014;2022-12-07T06:14:04;100589.63;;;15.80;41.81
75767;BME280;64378;55.596;13.014;2022-12-07T06:16:30;100588.81;;;15.80;41.60
75767;BME280;64378;55.596;13.014;2022-12-07T06:18:55;100593.16;;;15.81;41.94
75767;BME280;64378;55.596;13.014;2022-12-07T06:21:20;100593.16;;;15.81;41.86
75767;BME280;64378;55.596;13.014;2022-12-07T06:23:45;100595.88;;;15.81;41.60
75767;BME280;64378;55.596;13.014;2022-12-07T06:26:12;100594.28;;;15.80;41.40
75767;BME280;64378;55.596;13.014;2022-12-07T06:28:37;100587.16;;;15.79;41.21
75767;BME280;64378;55.596;13.014;2022-12-07T06:31:03;100593.69;;;15.78;41.00
75767;BME280;64378;55.596;13.014;2022-12-07T06:33:28;100590.97;;;15.78;41.20
75767;BME280;64378;55.596;13.014;2022-12-07T06:35:54;100584.69;;;15.77;40.86
75767;BME280;64378;55.596;13.014;2022-12-07T06:38:19;100589.31;;;15.77;40.87
75767;BME280;64378;55.596;13.014;2022-12-07T06:40:44;100594.75;;;15.77;41.01
75767;BME280;64378;55.596;13.014;2022-12-07T06:43:10;100592.84;;;15.77;40.75
75767;BME280;64378;55.596;13.014;2022-12-07T06:45:35;100590.38;;;15.76;40.82
75767;BME280;64378;55.596;13.014;2022-12-07T06:48:00;100583.84;;;15.77;40.80
75767;BME280;64378;55.596;13.014;2022-12-07T06:50:25;100583.84;;;15.77;40.68
75767;BME280;64378;55.596;13.014;2022-12-07T06:52:51;100578.66;;;15.75;40.72
75767;BME280;64378;55.596;13.014;2022-12-07T06:55:16;100578.41;;;15.77;40.64
75767;BME280;64378;55.596;13.014;2022-12-07T06:57:42;100579.47;;;15.76;40.63
75767;BME280;64378;55.596;13.014;2022-12-07T07:00:07;100583.00;;;15.76;40.75
75767;BME280;64378;55.596;13.014;2022-12-07T07:02:33;100586.00;;;15.75;40.29
75767;BME280;64378;55.596;13.014;2022-12-07T07:04:58;100584.56;;;15.72;40.27
75767;BME280;64378;55.596;13.014;2022-12-07T07:07:23;100588.34;;;15.71;40.03
75767;BME280;64378;55.596;13.014;2022-12-07T07:09:48;100590.25;;;15.71;40.26
75767;BME280;64378;55.596;13.014;2022-12-07T07:12:13;100590.47;;;15.69;40.00
75767;BME280;64378;55.596;13.014;2022-12-07T07:14:39;100582.31;;;15.69;40.00
75767;BME280;64378;55.596;13.014;2022-12-07T07:17:04;100596.16;;;15.68;39.99
75767;BME280;64378;55.596;13.014;2022-12-07T07:19:29;100596.16;;;15.68;39.80
75767;BME280;64378;55.596;13.014;2022-12-07T07:21:55;100595.56;;;15.66;39.90
75767;BME280;64378;55.596;13.014;2022-12-07T07:24:20;100593.09;;;15.64;40.02
75767;BME280;64378;55.596;13.014;2022-12-07T07:26:45;100596.63;;;15.65;40.09
75767;BME280;64378;55.596;13.014;2022-12-07T07:29:10;100594.16;;;15.63;39.92
75767;BME280;64378;55.596;13.014;2022-12-07T07:31:35;100594.16;;;15.63;39.84
75767;BME280;64378;55.596;13.014;2022-12-07T07:34:02;100604.47;;;15.61;39.69
75767;BME280;64378;55.596;13.014;2022-12-07T07:36:27;100600.91;;;15.61;39.86
75767;BME280;64378;55.596;13.014;2022-12-07T07:38:52;100605.53;;;15.60;39.72
75767;BME280;64378;55.596;13.014;2022-12-07T07:41:17;100603.03;;;15.59;39.75
75767;BME280;64378;55.596;13.014;2022-12-07T07:43:43;100601.16;;;15.59;39.74
75767;BME280;64378;55.596;13.014;2022-12-07T07:46:08;100604.69;;;15.60;39.79
75767;BME280;64378;55.596;13.014;2022-12-07T07:48:33;100598.44;;;15.59;39.77
75767;BME280;64378;55.596;13.014;2022-12-07T07:50:58;100603.88;;;15.59;39.59
75767;BME280;64378;55.596;13.014;2022-12-07T07:53:24;100595.72;;;15.59;39.43
75767;BME280;64378;55.596;13.014;2022-12-07T07:55:53;100597.59;;;15.59;39.86
75767;BME280;64378;55.596;13.014;2022-12-07T07:58:18;100592.16;;;15.59;39.68
75767;BME280;64378;55.596;13.014;2022-12-07T08:00:44;100601.16;;;15.59;39.42
75767;BME280;64378;55.596;13.014;2022-12-07T08:03:09;100594.88;;;15.59;39.29
75767;BME280;64378;55.596;13.014;2022-12-07T08:05:36;100590.50;;;15.58;39.45
75767;BME280;64378;55.596;13.014;2022-12-07T08:08:01;100588.03;;;15.56;39.58
75767;BME280;64378;55.596;13.014;2022-12-07T08:10:26;100592.16;;;15.59;39.52
75767;BME280;64378;55.596;13.014;2022-12-07T08:12:52;100587.75;;;15.58;39.28
75767;BME280;64378;55.596;13.014;2022-12-07T08:15:36;100591.56;;;15.57;39.16
75767;BME280;64378;55.596;13.014;2022-12-07T08:18:01;100587.75;;;15.58;39.18
75767;BME280;64378;55.596;13.014;2022-12-07T08:20:26;100579.28;;;15.54;39.30
75767;BME280;64378;55.596;13.014;2022-12-07T08:22:52;100583.91;;;15.54;39.49
75767;BME280;64378;55.596;13.014;2022-12-07T08:25:17;100584.72;;;15.54;39.36
75767;BME280;64378;55.596;13.014;2022-12-07T08:27:42;100586.63;;;15.54;39.30
75767;BME280;64378;55.596;13.014;2022-12-07T08:30:08;100586.63;;;15.54;39.30
75767;BME280;64378;55.596;13.014;2022-12-07T08:32:33;100573.25;;;15.52;39.30
75767;BME280;64378;55.596;13.014;2022-12-07T08:34:58;100572.78;;;15.55;39.30
75767;BME280;64378;55.596;13.014;2022-12-07T08:37:23;100570.31;;;15.54;38.93
75767;BME280;64378;55.596;13.014;2022-12-07T08:39:49;100575.75;;;15.54;39.18
75767;BME280;64378;55.596;13.014;2022-12-07T08:42:14;100572.19;;;15.53;39.13
75767;BME280;64378;55.596;13.014;2022-12-07T08:44:39;100578.47;;;15.54;38.96
75767;BME280;64378;55.596;13.014;2022-12-07T08:47:05;100568.66;;;15.53;39.17
75767;BME280;64378;55.596;13.014;2022-12-07T08:49:41;100568.88;;;15.51;38.93
75767;BME280;64378;55.596;13.014;2022-12-07T08:52:08;100576.81;;;15.53;39.09
75767;BME280;64378;55.596;13.014;2022-12-07T08:54:34;100574.66;;;15.55;40.05
75767;BME280;64378;55.596;13.014;2022-12-07T08:57:00;100579.72;;;15.63;40.00
75767;BME280;64378;55.596;13.014;2022-12-07T08:59:26;100582.31;;;15.69;40.68
75767;BME280;64378;55.596;13.014;2022-12-07T09:01:52;100571.31;;;15.76;40.73
75767;BME280;64378;55.596;13.014;2022-12-07T09:04:17;100567.88;;;15.80;40.86
75767;BME280;64378;55.596;13.014;2022-12-07T09:06:42;100573.66;;;15.84;41.03
75767;BME280;64378;55.596;13.014;2022-12-07T09:09:08;100569.63;;;15.86;40.64
75767;BME280;64378;55.596;13.014;2022-12-07T09:11:34;100563.72;;;15.89;40.81
75767;BME280;64378;55.596;13.014;2022-12-07T09:13:59;100577.66;;;15.93;41.00
75767;BME280;64378;55.596;13.014;2022-12-07T09:16:24;100571.16;;;15.94;40.56
75767;BME280;64378;55.596;13.014;2022-12-07T09:18:50;100573.63;;;15.95;40.55
75767;BME280;64378;55.596;13.014;2022-12-07T09:21:15;100573.97;;;15.99;40.89
75767;BME280;64378;55.596;13.014;2022-12-07T09:23:41;100569.13;;;16.01;41.07
75767;BME280;64378;55.596;13.014;2022-12-07T09:26:06;100567.22;;;16.01;40.51
75767;BME280;64378;55.596;13.014;2022-12-07T09:28:31;100567.00;;;16.03;41.01
75767;BME280;64378;55.596;13.014;2022-12-07T09:30:56;100555.59;;;16.06;40.60
75767;BME280;64378;55.596;13.014;2022-12-07T09:33:22;100559.16;;;16.06;40.53
75767;BME280;64378;55.596;13.014;2022-12-07T09:35:48;100561.88;;;16.06;40.82
75767;BME280;64378;55.596;13.014;2022-12-07T09:38:14;100558.91;;;16.08;40.53
75767;BME280;64378;55.596;13.014;2022-12-07T09:40:40;100550.53;;;16.09;40.85
75767;BME280;64378;55.596;13.014;2022-12-07T09:43:10;100543.16;;;16.10;40.51
75767;BME280;64378;55.596;13.014;2022-12-07T09:45:37;100545.88;;;16.10;40.36
75767;BME280;64378;55.596;13.014;2022-12-07T09:48:03;100539.63;;;16.09;40.44
75767;BME280;64378;55.596;13.014;2022-12-07T09:50:29;100538.31;;;16.12;40.22
75767;BME280;64378;55.596;13.014;2022-12-07T09:53:01;100538.31;;;16.12;40.53
75767;BME280;64378;55.596;13.014;2022-12-07T09:55:30;100536.16;;;16.14;40.41
75767;BME280;64378;55.596;13.014;2022-12-07T09:57:56;100537.59;;;16.16;40.51
75767;BME280;64378;55.596;13.014;2022-12-07T10:00:23;100530.50;;;16.15;40.32
75767;BME280;64378;55.596;13.014;2022-12-07T10:02:58;100537.59;;;16.16;40.23
75767;BME280;64378;55.596;13.014;2022-12-07T10:05:25;100539.81;;;16.19;40.49
75767;BME280;64378;55.596;13.014;2022-12-07T10:07:52;100540.66;;;16.20;40.45
75767;BME280;64378;55.596;13.014;2022-12-07T10:10:19;100539.59;;;16.21;40.16
75767;BME280;64378;55.596;13.014;2022-12-07T10:15:18;100534.94;;;16.21;40.17
75767;BME280;64378;55.596;13.014;2022-12-07T10:17:47;100534.72;;;16.23;39.96
75767;BME280;64378;55.596;13.014;2022-12-07T10:20:15;100537.19;;;16.24;40.19
75767;BME280;64378;55.596;13.014;2022-12-07T10:25:21;100532.09;;;16.27;40.13
75767;BME280;64378;55.596;13.014;2022-12-07T10:28:00;100530.44;;;16.27;40.14
75767;BME280;64378;55.596;13.014;2022-12-07T10:30:26;100529.38;;;16.27;40.13
75767;BME280;64378;55.596;13.014;2022-12-07T10:32:51;100522.03;;;16.28;39.94
75767;BME280;64378;55.596;13.014;2022-12-07T10:35:21;100519.06;;;16.29;40.22
75767;BME280;64378;55.596;13.014;2022-12-07T10:37:48;100525.94;;;16.32;40.16
75767;BME280;64378;55.596;13.014;2022-12-07T10:40:35;100524.88;;;16.33;40.22
75767;BME280;64378;55.596;13.014;2022-12-07T10:45:30;100510.19;;;16.34;40.02
75767;BME280;64378;55.596;13.014;2022-12-07T11:03:29;100500.69;;;16.36;40.15
75767;BME280;64378;55.596;13.014;2022-12-07T11:06:08;100500.69;;;16.36;40.42
75767;BME280;64378;55.596;13.014;2022-12-07T11:11:47;100494.19;;;16.37;40.12
75767;BME280;64378;55.596;13.014;2022-12-07T11:16:23;100489.31;;;16.39;40.17
75767;BME280;64378;55.596;13.014;2022-12-07T11:19:04;100492.03;;;16.39;40.56
75767;BME280;64378;55.596;13.014;2022-12-07T11:21:35;100496.41;;;16.40;41.62
75767;BME280;64378;55.596;13.014;2022-12-07T11:24:10;100496.66;;;16.39;42.78
75767;BME280;64378;55.596;13.014;2022-12-07T11:31:37;100483.66;;;16.41;46.33
75767;BME280;64378;55.596;13.014;2022-12-07T11:34:11;100477.13;;;16.42;46.42
75767;BME280;64378;55.596;13.014;2022-12-07T11:36:43;100482.22;;;16.38;46.51
75767;BME280;64378;55.596;13.014;2022-12-07T11:39:12;100483.28;;;16.37;46.50
75767;BME280;64378;55.596;13.014;2022-12-07T11:41:41;100490.38;;;16.38;46.84
75767;BME280;64378;55.596;13.014;2022-12-07T11:44:08;100475.97;;;16.38;46.18
75767;BME280;64378;55.596;13.014;2022-12-07T11:46:47;100480.56;;;16.37;46.18
75767;BME280;64378;55.596;13.014;2022-12-07T11:51:49;100467.44;;;16.34;46.08
75767;BME280;64378;55.596;13.014;2022-12-07T11:54:21;100468.28;;;16.35;45.90
75767;BME280;64378;55.596;13.014;2022-12-07T11:56:49;100461.75;;;16.36;46.18
75767;BME280;64378;55.596;13.014;2022-12-07T12:02:21;100457.63;;;16.33;45.78
75767;BME280;64378;55.596;13.014;2022-12-07T12:07:23;100451.09;;;16.34;45.24
75767;BME280;64378;55.596;13.014;2022-12-07T12:09:51;100450.28;;;16.34;45.05
75767;BME280;64378;55.596;13.014;2022-12-07T12:14:59;100455.97;;;16.32;45.04
75767;BME280;64378;55.596;13.014;2022-12-07T12:22:44;100446.25;;;16.36;44.43
75767;BME280;64378;55.596;13.014;2022-12-07T12:25:29;100445.44;;;16.36;44.39
75767;BME280;64378;55.596;13.014;2022-12-07T12:27:56;100441.06;;;16.35;44.24
75767;BME280;64378;55.596;13.014;2022-12-07T12:30:43;100447.56;;;16.34;43.93
75767;BME280;64378;55.596;13.014;2022-12-07T12:33:27;100446.72;;;16.33;43.88
75767;BME280;64378;55.596;13.014;2022-12-07T12:44:01;100439.97;;;16.36;43.71
75767;BME280;64378;55.596;13.014;2022-12-07T12:51:39;100452.53;;;16.37;43.37
75767;BME280;64378;55.596;13.014;2022-12-07T12:54:05;100450.63;;;16.37;43.21
75767;BME280;64378;55.596;13.014;2022-12-07T13:04:24;100459.38;;;16.39;43.03
75767;BME280;64378;55.596;13.014;2022-12-07T13:06:50;100459.38;;;16.39;42.94
75767;BME280;64378;55.596;13.014;2022-12-07T13:09:22;100460.19;;;16.40;43.23
75767;BME280;64378;55.596;13.014;2022-12-07T13:11:48;100454.75;;;16.40;42.84
75767;BME280;64378;55.596;13.014;2022-12-07T13:16:58;100460.19;;;16.40;42.89
75767;BME280;64378;55.596;13.014;2022-12-07T13:19:52;100459.38;;;16.39;42.75
75767;BME280;64378;55.596;13.014;2022-12-07T13:24:56;100464.81;;;16.39;42.65
75767;BME280;64378;55.596;13.014;2022-12-07T13:27:21;100465.66;;;16.40;42.56
75767;BME280;64378;55.596;13.014;2022-12-07T13:29:47;100469.19;;;16.40;42.43
75767;BME280;64378;55.596;13.014;2022-12-07T13:32:22;100459.38;;;16.39;42.29
75767;BME280;64378;55.596;13.014;2022-12-07T13:34:48;100466.47;;;16.40;42.58
75767;BME280;64378;55.596;13.014;2022-12-07T13:37:14;100461.28;;;16.39;42.32
75767;BME280;64378;55.596;13.014;2022-12-07T13:42:18;100465.66;;;16.40;42.34
75767;BME280;64378;55.596;13.014;2022-12-07T13:44:44;100462.09;;;16.39;42.17
75767;BME280;64378;55.596;13.014;2022-12-07T13:47:21;100463.16;;;16.38;42.21
75767;BME280;64378;55.596;13.014;2022-12-07T13:49:49;100462.34;;;16.38;42.21
75767;BME280;64378;55.596;13.014;2022-12-07T13:54:55;100458.56;;;16.39;42.39
75767;BME280;64378;55.596;13.014;2022-12-07T13:57:21;100458.56;;;16.39;41.94
75767;BME280;64378;55.596;13.014;2022-12-07T13:59:46;100456.63;;;16.39;42.26
75767;BME280;64378;55.596;13.014;2022-12-07T14:02:24;100464.00;;;16.39;42.09
75767;BME280;64378;55.596;13.014;2022-12-07T14:04:50;100460.44;;;16.38;42.07
75767;BME280;64378;55.596;13.014;2022-12-07T14:07:25;100461.50;;;16.37;42.11
75767;BME280;64378;55.596;13.014;2022-12-07T14:09:55;100468.59;;;16.38;42.21
75767;BME280;64378;55.596;13.014;2022-12-07T14:12:20;100461.28;;;16.39;42.16
75767;BME280;64378;55.596;13.014;2022-12-07T14:14:46;100460.69;;;16.37;42.21
75767;BME280;64378;55.596;13.014;2022-12-07T14:17:16;100466.94;;;16.37;42.28
75767;BME280;64378;55.596;13.014;2022-12-07T14:22:08;100467.78;;;16.38;42.41
75767;BME280;64378;55.596;13.014;2022-12-07T14:24:41;100466.94;;;16.37;41.94
75767;BME280;64378;55.596;13.014;2022-12-07T14:27:15;100477.84;;;16.37;42.04
75767;BME280;64378;55.596;13.014;2022-12-07T14:29:41;100477.84;;;16.37;41.79
75767;BME280;64378;55.596;13.014;2022-12-07T14:32:18;100472.41;;;16.37;41.87
75767;BME280;64378;55.596;13.014;2022-12-07T14:35:08;100476.78;;;16.38;41.74